Time;durP1;ratioP1;P1;durP2;ratioP2;P2;SDS_P1;SDS_P2;PMS_P1;PMS_P2;Temp;Humidity;BMP_temperature;BMP_pressure;BME280_temperature;BME280_humidity;BME280_pressure;Samples;Min_cycle;Max_cycle;Signal;HPM_P1;HPM_P2
2023/05/13 00:00:16;;;;;;;10.80;10.30;;;15.30;35.80;;;;;;5071132;28;20260;-71
2023/05/13 00:02:42;;;;;;;10.77;10.30;;;15.40;35.30;;;;;;5072020;28;20445;-72
2023/05/13 00:05:08;;;;;;;10.97;10.43;;;15.40;35.20;;;;;;5054574;28;20519;-71
2023/05/13 00:07:33;;;;;;;11.70;11.13;;;15.40;35.00;;;;;;5068639;28;20171;-71
2023/05/13 00:09:59;;;;;;;11.80;11.30;;;15.20;36.10;;;;;;5070432;28;20167;-73
2023/05/13 00:12:24;;;;;;;11.80;11.10;;;15.20;36.10;;;;;;5068766;28;20254;-71
2023/05/13 00:14:50;;;;;;;10.60;10.30;;;15.20;35.70;;;;;;5051259;28;20209;-70
2023/05/13 00:17:16;;;;;;;10.20;9.80;;;15.20;35.40;;;;;;5069927;28;20202;-70
2023/05/13 00:19:41;;;;;;;11.17;10.77;;;15.30;35.20;;;;;;5069860;28;20175;-73
2023/05/13 00:22:07;;;;;;;11.10;10.70;;;15.30;35.30;;;;;;5068062;28;20428;-70
2023/05/13 00:24:32;;;;;;;10.40;10.00;;;15.30;35.00;;;;;;5069955;28;20210;-74
2023/05/13 00:26:58;;;;;;;10.90;10.50;;;15.30;35.00;;;;;;5052669;28;20224;-71
2023/05/13 00:29:24;;;;;;;11.37;10.83;;;15.30;35.80;;;;;;5070274;28;20178;-75
2023/05/13 00:31:50;;;;;;;11.57;11.07;;;15.30;35.00;;;;;;5069706;28;20454;-70
2023/05/13 00:34:17;;;;;;;11.40;10.80;;;15.20;35.10;;;;;;5070161;28;20192;-69
2023/05/13 00:36:43;;;;;;;11.60;11.20;;;15.20;35.10;;;;;;5069107;28;20409;-72
2023/05/13 00:39:08;;;;;;;11.07;10.67;;;15.20;35.00;;;;;;5068101;28;20474;-71
2023/05/13 00:41:34;;;;;;;11.37;10.87;;;15.20;34.80;;;;;;5068786;28;20697;-72
2023/05/13 00:43:59;;;;;;;10.90;10.40;;;15.20;35.00;;;;;;5068698;28;20218;-72
2023/05/13 00:46:30;;;;;;;10.90;10.50;;;15.20;34.90;;;;;;5070820;28;20172;-72
2023/05/13 00:48:56;;;;;;;10.97;10.37;;;15.20;35.00;;;;;;5069317;28;20221;-70
2023/05/13 00:51:21;;;;;;;12.43;11.87;;;15.30;35.10;;;;;;5049206;28;20943;-70
2023/05/13 00:53:48;;;;;;;11.30;10.80;;;15.30;34.60;;;;;;5067245;28;20183;-70
2023/05/13 00:56:18;;;;;;;12.03;11.53;;;15.30;34.70;;;;;;5067998;28;20198;-70
2023/05/13 00:58:43;;;;;;;10.37;9.97;;;15.20;34.50;;;;;;5048991;28;20409;-70
2023/05/13 01:01:30;;;;;;;11.60;11.00;;;15.20;34.50;;;;;;5069947;28;20410;-70
2023/05/13 01:04:09;;;;;;;11.23;10.70;;;15.20;34.90;;;;;;5066682;28;20238;-70
2023/05/13 01:06:39;;;;;;;10.80;10.40;;;15.20;34.90;;;;;;5068912;28;20942;-73
2023/05/13 01:09:13;;;;;;;11.40;10.77;;;15.20;35.10;;;;;;5067726;28;20882;-70
2023/05/13 01:11:40;;;;;;;11.60;11.20;;;15.20;35.50;;;;;;5069104;28;20398;-70
2023/05/13 01:14:12;;;;;;;11.30;10.90;;;15.10;35.40;;;;;;5066360;28;20789;-71
2023/05/13 01:16:51;;;;;;;12.30;11.80;;;15.10;35.10;;;;;;5066012;28;20555;-71
2023/05/13 01:19:45;;;;;;;12.67;12.17;;;15.10;35.30;;;;;;5065477;28;20466;-70
2023/05/13 01:22:11;;;;;;;11.70;11.00;;;14.90;34.80;;;;;;5048962;28;20421;-71
2023/05/13 01:24:37;;;;;;;10.93;10.53;;;14.90;35.40;;;;;;5068379;28;20464;-71
2023/05/13 01:27:03;;;;;;;12.47;11.80;;;14.90;35.50;;;;;;5051202;28;20417;-70
2023/05/13 01:29:29;;;;;;;11.27;10.87;;;15.00;35.40;;;;;;5069290;28;20665;-70
2023/05/13 01:31:56;;;;;;;11.93;11.53;;;14.90;35.00;;;;;;5049955;28;20931;-70
2023/05/13 01:34:23;;;;;;;11.40;11.00;;;14.90;35.10;;;;;;5065389;28;20779;-70
2023/05/13 01:36:49;;;;;;;11.30;10.90;;;14.90;35.10;;;;;;5066412;28;20410;-70
2023/05/13 01:39:16;;;;;;;11.50;11.10;;;14.90;35.30;;;;;;5068299;28;20451;-72
2023/05/13 01:41:43;;;;;;;11.43;10.93;;;14.80;34.80;;;;;;5065479;28;20175;-70
2023/05/13 01:44:09;;;;;;;11.40;11.00;;;14.90;34.70;;;;;;5066508;28;20560;-70
2023/05/13 01:46:36;;;;;;;11.67;11.17;;;14.80;34.90;;;;;;5066769;28;20434;-72
2023/05/13 01:49:02;;;;;;;11.83;11.23;;;14.80;34.90;;;;;;5067321;28;20175;-72
2023/05/13 01:51:27;;;;;;;11.03;10.60;;;14.80;34.90;;;;;;5048040;28;20413;-70
2023/05/13 01:53:53;;;;;;;11.13;10.63;;;14.60;35.50;;;;;;5067420;28;20220;-70
2023/05/13 01:56:18;;;;;;;11.87;11.27;;;14.60;35.30;;;;;;5066749;28;20646;-72
2023/05/13 01:58:44;;;;;;;11.80;11.30;;;14.60;34.90;;;;;;5066825;28;20262;-71
2023/05/13 02:01:10;;;;;;;10.77;10.37;;;14.50;34.80;;;;;;5065070;28;20164;-74
2023/05/13 02:03:36;;;;;;;11.07;10.67;;;14.50;35.10;;;;;;5066739;28;20755;-72
2023/05/13 02:06:02;;;;;;;11.73;11.23;;;14.40;35.00;;;;;;5065037;28;20604;-71
2023/05/13 02:08:27;;;;;;;11.97;11.40;;;14.40;35.40;;;;;;5049249;28;20474;-72
2023/05/13 02:10:57;;;;;;;11.83;11.43;;;14.40;35.20;;;;;;5067378;28;20182;-71
2023/05/13 02:13:23;;;;;;;11.80;10.97;;;14.40;35.00;;;;;;5066246;28;20256;-70
2023/05/13 02:15:48;;;;;;;12.10;11.50;;;14.40;34.80;;;;;;5066556;28;20413;-70
2023/05/13 02:18:14;;;;;;;10.67;10.23;;;14.50;34.90;;;;;;5067663;28;20417;-71
2023/05/13 02:20:40;;;;;;;11.03;10.53;;;14.40;34.40;;;;;;5069688;28;20211;-71
2023/05/13 02:23:06;;;;;;;11.87;11.37;;;14.40;34.70;;;;;;5067582;28;20254;-70
2023/05/13 02:25:32;;;;;;;12.00;11.60;;;14.30;34.40;;;;;;5071325;28;20464;-73
2023/05/13 02:27:58;;;;;;;11.33;10.83;;;14.30;34.50;;;;;;5071299;28;20437;-72
2023/05/13 02:30:25;;;;;;;11.57;11.07;;;14.40;34.30;;;;;;5070933;28;20231;-74
2023/05/13 02:32:52;;;;;;;11.93;11.33;;;14.40;33.90;;;;;;5072712;28;20459;-71
2023/05/13 02:35:17;;;;;;;11.17;10.50;;;14.40;34.30;;;;;;5068569;28;20417;-71
2023/05/13 02:37:43;;;;;;;11.27;10.70;;;14.40;34.60;;;;;;5047151;28;20472;-71
2023/05/13 02:40:09;;;;;;;11.27;10.87;;;14.40;33.90;;;;;;5065863;28;20421;-70
2023/05/13 02:42:35;;;;;;;10.03;9.73;;;14.40;34.00;;;;;;5066147;28;20183;-71
2023/05/13 02:45:00;;;;;;;11.60;11.10;;;14.30;34.70;;;;;;5063900;28;20214;-73
2023/05/13 02:47:26;;;;;;;12.07;11.50;;;14.30;34.50;;;;;;5065272;28;20646;-71
2023/05/13 02:49:53;;;;;;;11.00;10.40;;;14.30;34.00;;;;;;5046272;28;20648;-70
2023/05/13 02:52:19;;;;;;;10.93;10.33;;;14.30;34.60;;;;;;5064016;28;20172;-71
2023/05/13 02:54:45;;;;;;;10.90;10.40;;;14.20;34.20;;;;;;5062891;28;20471;-72
2023/05/13 02:57:10;;;;;;;11.00;10.50;;;14.20;34.00;;;;;;5065501;28;20221;-71
2023/05/13 02:59:36;;;;;;;11.50;10.90;;;14.20;33.70;;;;;;5046812;28;20175;-71
2023/05/13 03:02:01;;;;;;;11.23;10.83;;;14.20;33.40;;;;;;5046192;28;20218;-74
2023/05/13 03:04:27;;;;;;;11.90;11.40;;;14.10;33.30;;;;;;5063000;28;20245;-71
2023/05/13 03:06:53;;;;;;;13.00;11.73;;;14.10;33.90;;;;;;5064323;28;20176;-72
2023/05/13 03:09:18;;;;;;;10.70;10.23;;;14.10;33.40;;;;;;5063674;28;20458;-73
2023/05/13 03:11:44;;;;;;;11.10;10.60;;;14.10;33.60;;;;;;5064894;28;20178;-71
2023/05/13 03:14:10;;;;;;;10.80;10.40;;;14.00;33.10;;;;;;5064898;28;20195;-71
2023/05/13 03:16:35;;;;;;;10.77;10.37;;;14.00;33.00;;;;;;5064166;28;20281;-72
2023/05/13 03:19:01;;;;;;;10.63;10.13;;;14.00;33.20;;;;;;5065222;28;20167;-71
2023/05/13 03:21:26;;;;;;;10.70;10.30;;;14.00;33.10;;;;;;5043970;28;20895;-73
2023/05/13 03:23:52;;;;;;;11.37;10.97;;;14.00;33.10;;;;;;5063516;28;20191;-70
2023/05/13 03:26:17;;;;;;;10.97;10.53;;;13.90;32.90;;;;;;5062744;28;21249;-70
2023/05/13 03:28:43;;;;;;;11.67;11.27;;;13.90;33.40;;;;;;5065386;28;20171;-70
2023/05/13 03:31:08;;;;;;;12.67;12.07;;;13.90;33.90;;;;;;5066742;28;20175;-71
2023/05/13 03:33:34;;;;;;;11.10;10.70;;;13.90;33.00;;;;;;5066725;28;20655;-72
2023/05/13 03:36:00;;;;;;;11.63;10.60;;;14.00;32.80;;;;;;5066775;28;20171;-71
2023/05/13 03:38:25;;;;;;;11.07;10.67;;;13.90;33.30;;;;;;5067748;28;20179;-70
2023/05/13 03:40:51;;;;;;;11.20;10.80;;;13.90;32.90;;;;;;5066688;28;20254;-71
2023/05/13 03:43:16;;;;;;;11.30;10.80;;;13.90;33.20;;;;;;5066770;28;20278;-75
2023/05/13 03:45:46;;;;;;;10.33;9.97;;;13.90;33.20;;;;;;5067290;28;20203;-71
2023/05/13 03:48:12;;;;;;;11.40;10.80;;;13.90;33.00;;;;;;5067274;28;20670;-71
2023/05/13 03:50:37;;;;;;;10.83;10.43;;;13.90;33.10;;;;;;5065440;28;20492;-70
2023/05/13 03:53:03;;;;;;;10.63;10.23;;;13.90;32.70;;;;;;5065212;28;20183;-72
2023/05/13 03:55:28;;;;;;;10.67;10.27;;;13.90;32.50;;;;;;5066249;28;20642;-74
2023/05/13 03:57:54;;;;;;;11.70;11.30;;;13.90;32.50;;;;;;5067935;28;20172;-70
2023/05/13 04:00:20;;;;;;;10.60;10.10;;;14.00;32.10;;;;;;5066283;28;20190;-71
2023/05/13 04:02:45;;;;;;;10.57;10.17;;;13.90;32.20;;;;;;5065327;28;20226;-74
2023/05/13 04:05:12;;;;;;;11.23;10.73;;;13.80;33.00;;;;;;5066862;28;20582;-71
2023/05/13 04:07:38;;;;;;;10.77;10.37;;;13.70;32.90;;;;;;5068209;28;20168;-71
2023/05/13 04:10:04;;;;;;;11.60;11.20;;;13.70;33.30;;;;;;5068941;28;20634;-71
2023/05/13 04:12:32;;;;;;;10.90;10.50;;;13.70;33.10;;;;;;5066923;28;20945;-71
2023/05/13 04:14:57;;;;;;;10.20;9.80;;;13.70;33.00;;;;;;5068141;28;20782;-70
2023/05/13 04:17:23;;;;;;;11.40;11.00;;;13.70;32.70;;;;;;5070488;28;20413;-72
2023/05/13 04:19:52;;;;;;;11.33;10.73;;;13.70;33.00;;;;;;5068982;28;20175;-71
2023/05/13 04:22:18;;;;;;;11.50;10.90;;;13.80;33.10;;;;;;5070667;28;20183;-71
2023/05/13 04:24:44;;;;;;;11.17;10.73;;;13.80;32.90;;;;;;5070946;28;20861;-71
2023/05/13 04:27:09;;;;;;;12.03;11.50;;;13.90;32.80;;;;;;5070601;28;20402;-70
2023/05/13 04:29:35;;;;;;;11.30;10.90;;;13.90;32.90;;;;;;5072053;28;20167;-68
2023/05/13 04:32:00;;;;;;;10.77;10.37;;;13.80;33.00;;;;;;5071658;28;20171;-70
2023/05/13 04:34:26;;;;;;;11.20;10.80;;;13.80;33.20;;;;;;5071869;28;20285;-71
2023/05/13 04:36:51;;;;;;;10.67;10.17;;;13.80;33.00;;;;;;5053674;28;20634;-70
2023/05/13 04:39:17;;;;;;;10.37;9.97;;;13.80;33.30;;;;;;5073293;28;20195;-71
2023/05/13 04:41:42;;;;;;;10.50;10.10;;;13.70;33.20;;;;;;5055048;28;20201;-71
2023/05/13 04:44:08;;;;;;;10.70;10.20;;;13.70;33.30;;;;;;5074421;28;20229;-74
2023/05/13 04:46:36;;;;;;;11.70;11.20;;;13.70;32.90;;;;;;5075537;28;20172;-71
2023/05/13 04:49:01;;;;;;;10.93;10.43;;;13.80;33.30;;;;;;5075310;28;20175;-69
2023/05/13 04:51:28;;;;;;;11.70;11.20;;;13.70;33.90;;;;;;5074214;28;20765;-70
2023/05/13 04:53:53;;;;;;;10.97;10.57;;;13.70;33.10;;;;;;5075333;28;20237;-71
2023/05/13 04:56:19;;;;;;;11.37;10.77;;;13.70;32.80;;;;;;5072478;28;20889;-72
2023/05/13 04:58:45;;;;;;;11.20;10.70;;;13.80;32.90;;;;;;5069824;28;20171;-71
2023/05/13 05:01:10;;;;;;;11.60;11.20;;;13.80;32.80;;;;;;5073363;28;20406;-73
2023/05/13 05:03:36;;;;;;;10.93;10.53;;;13.90;33.00;;;;;;5073558;28;20219;-70
2023/05/13 05:06:01;;;;;;;11.50;10.90;;;13.90;32.50;;;;;;5073167;28;20292;-71
2023/05/13 05:08:27;;;;;;;12.97;12.37;;;13.80;32.50;;;;;;5072179;28;20248;-71
2023/05/13 05:10:53;;;;;;;12.10;11.60;;;13.90;32.20;;;;;;5073611;28;20191;-70
2023/05/13 05:13:18;;;;;;;11.00;10.60;;;13.90;32.80;;;;;;5072977;28;20436;-69
2023/05/13 05:15:44;;;;;;;12.17;11.53;;;13.90;32.30;;;;;;5074123;28;20183;-71
2023/05/13 05:18:09;;;;;;;11.80;11.30;;;13.90;31.80;;;;;;5073706;28;20175;-71
2023/05/13 05:20:36;;;;;;;12.07;11.57;;;13.90;31.60;;;;;;5074049;28;20684;-71
2023/05/13 05:23:02;;;;;;;11.87;11.40;;;14.00;31.10;;;;;;5073814;28;20187;-71
2023/05/13 05:25:28;;;;;;;12.10;11.60;;;13.90;31.30;;;;;;5075747;28;20457;-71
2023/05/13 05:27:54;;;;;;;11.77;11.20;;;13.90;31.30;;;;;;5074688;28;20178;-71
2023/05/13 05:30:19;;;;;;;12.10;11.60;;;13.90;31.70;;;;;;5075010;28;20410;-71
2023/05/13 05:32:45;;;;;;;12.70;12.20;;;13.90;31.10;;;;;;5074479;28;20191;-71
2023/05/13 05:35:12;;;;;;;12.90;12.27;;;13.90;31.00;;;;;;5075401;28;20777;-70
2023/05/13 05:37:37;;;;;;;12.07;11.57;;;13.80;30.70;;;;;;5073787;28;20195;-70
2023/05/13 05:40:03;;;;;;;12.30;11.77;;;13.70;31.30;;;;;;5074523;28;20971;-70
2023/05/13 05:42:29;;;;;;;12.50;11.90;;;13.70;32.40;;;;;;5071274;28;20177;-70
2023/05/13 05:44:54;;;;;;;12.07;11.50;;;13.70;32.10;;;;;;5073656;28;20457;-70
2023/05/13 05:47:20;;;;;;;12.53;11.80;;;13.70;31.80;;;;;;5075171;28;20172;-71
2023/05/13 05:49:45;;;;;;;12.40;11.73;;;13.70;31.90;;;;;;5055716;28;20221;-69
2023/05/13 05:52:12;;;;;;;12.07;11.30;;;13.70;31.90;;;;;;5072666;28;20175;-71
2023/05/13 05:54:37;;;;;;;12.60;12.10;;;13.80;32.10;;;;;;5074991;28;20192;-71
2023/05/13 05:57:03;;;;;;;11.67;10.97;;;13.80;31.90;;;;;;5074382;28;20414;-71
2023/05/13 05:59:29;;;;;;;11.70;11.23;;;13.70;32.20;;;;;;5072513;28;20191;-73
2023/05/13 06:01:54;;;;;;;10.87;10.47;;;13.70;32.10;;;;;;5073236;28;20274;-71
2023/05/13 06:04:20;;;;;;;12.87;12.00;;;13.70;32.10;;;;;;5074491;28;20238;-71
2023/05/13 06:06:45;;;;;;;12.07;11.60;;;13.80;32.50;;;;;;5073746;28;20167;-70
2023/05/13 06:09:11;;;;;;;12.10;11.50;;;13.90;32.70;;;;;;5074871;28;20175;-73
2023/05/13 06:11:37;;;;;;;11.13;10.73;;;13.90;32.20;;;;;;5072196;28;20205;-72
2023/05/13 06:14:02;;;;;;;11.27;10.77;;;13.90;31.80;;;;;;5072652;28;20195;-71
2023/05/13 06:16:28;;;;;;;12.47;11.90;;;13.90;31.70;;;;;;5072858;28;20187;-70
2023/05/13 06:18:53;;;;;;;12.60;11.90;;;13.90;31.80;;;;;;5073154;28;20167;-71
2023/05/13 06:21:19;;;;;;;12.10;11.60;;;13.90;32.10;;;;;;5070490;28;20183;-69
2023/05/13 06:23:44;;;;;;;12.10;11.53;;;13.90;32.20;;;;;;5073400;28;20529;-70
2023/05/13 06:26:10;;;;;;;12.33;11.73;;;13.90;31.70;;;;;;5072329;28;20180;-70
2023/05/13 06:28:35;;;;;;;11.37;10.97;;;13.90;31.40;;;;;;5055197;28;20183;-75
2023/05/13 06:31:01;;;;;;;11.87;11.27;;;13.80;32.20;;;;;;5069675;28;20171;-71
2023/05/13 06:33:27;;;;;;;12.30;11.70;;;13.60;32.80;;;;;;5073112;28;20191;-70
2023/05/13 06:35:52;;;;;;;12.00;11.50;;;13.70;32.80;;;;;;5073653;28;20175;-70
2023/05/13 06:38:18;;;;;;;12.13;11.63;;;13.70;32.80;;;;;;5056152;28;20183;-71
2023/05/13 06:40:44;;;;;;;13.10;12.53;;;13.70;32.80;;;;;;5072877;28;20215;-71
2023/05/13 06:43:13;;;;;;;13.50;12.80;;;13.70;32.70;;;;;;5071781;28;20206;-70
2023/05/13 06:45:38;;;;;;;12.80;12.30;;;13.80;32.60;;;;;;5072362;28;20485;-71
2023/05/13 06:48:04;;;;;;;12.63;12.10;;;13.80;32.40;;;;;;5055310;28;20456;-72
2023/05/13 06:50:30;;;;;;;12.87;12.13;;;13.80;32.60;;;;;;5073296;28;20187;-71
2023/05/13 06:52:56;;;;;;;12.57;11.97;;;13.90;32.20;;;;;;5072539;28;20191;-70
2023/05/13 06:55:22;;;;;;;11.57;10.97;;;13.90;32.50;;;;;;5073684;28;20653;-70
2023/05/13 06:57:47;;;;;;;12.20;11.70;;;13.80;32.00;;;;;;5072524;28;20418;-70
2023/05/13 07:00:14;;;;;;;12.13;11.53;;;13.70;32.80;;;;;;5073769;28;20187;-69
2023/05/13 07:02:40;;;;;;;12.40;11.83;;;13.70;32.80;;;;;;5073211;28;20186;-70
2023/05/13 07:05:07;;;;;;;13.13;12.40;;;13.70;32.90;;;;;;5054101;28;20472;-70
2023/05/13 07:07:32;;;;;;;10.70;10.30;;;13.80;32.80;;;;;;5072496;28;20479;-69
2023/05/13 07:09:58;;;;;;;11.00;10.50;;;13.90;32.30;;;;;;5054244;28;20422;-69
2023/05/13 07:12:23;;;;;;;10.87;10.37;;;14.00;31.80;;;;;;5072317;28;20182;-69
2023/05/13 07:14:49;;;;;;;12.37;11.77;;;14.00;31.50;;;;;;5070562;28;20254;-69
2023/05/13 07:17:15;;;;;;;11.13;10.63;;;13.90;30.90;;;;;;5071128;28;20253;-71
2023/05/13 07:19:41;;;;;;;11.70;11.10;;;13.80;32.10;;;;;;5072284;28;20183;-71
2023/05/13 07:22:06;;;;;;;12.20;11.70;;;13.90;31.70;;;;;;5071677;28;20467;-70
2023/05/13 07:24:32;;;;;;;12.27;11.67;;;13.90;31.60;;;;;;5069713;28;20234;-70
2023/05/13 07:26:58;;;;;;;11.87;11.37;;;13.80;32.20;;;;;;5071066;28;20191;-69
2023/05/13 07:29:24;;;;;;;11.97;11.47;;;13.80;32.30;;;;;;5052504;28;20710;-72
2023/05/13 07:31:49;;;;;;;12.60;11.90;;;13.70;32.40;;;;;;5066386;28;20224;-70
2023/05/13 07:34:15;;;;;;;13.17;12.60;;;13.60;32.50;;;;;;5071270;28;20433;-70
2023/05/13 07:36:40;;;;;;;13.17;12.57;;;13.50;32.90;;;;;;5069799;28;20545;-71
2023/05/13 07:39:07;;;;;;;12.00;11.40;;;13.40;33.80;;;;;;5071666;28;20191;-70
2023/05/13 07:41:33;;;;;;;11.90;11.40;;;13.50;34.00;;;;;;5068644;28;20180;-70
2023/05/13 07:43:59;;;;;;;12.47;11.90;;;13.50;33.10;;;;;;5070465;28;20461;-69
2023/05/13 07:46:24;;;;;;;12.37;11.87;;;13.50;34.00;;;;;;5071800;28;20447;-70
2023/05/13 07:48:50;;;;;;;11.60;11.10;;;13.60;33.60;;;;;;5071654;28;20206;-72
2023/05/13 07:51:17;;;;;;;12.63;12.07;;;13.70;32.90;;;;;;5070532;28;20186;-72
2023/05/13 07:53:44;;;;;;;13.23;12.63;;;13.70;32.90;;;;;;5052720;28;20656;-70
2023/05/13 07:56:09;;;;;;;13.23;12.63;;;13.70;32.80;;;;;;5070307;28;20825;-69
2023/05/13 07:58:36;;;;;;;12.87;12.20;;;13.70;32.90;;;;;;5071198;28;20409;-70
2023/05/13 08:01:03;;;;;;;13.80;13.03;;;13.70;32.80;;;;;;5070693;28;20176;-69
2023/05/13 08:03:29;;;;;;;12.83;12.07;;;13.60;33.10;;;;;;5070356;28;20763;-71
2023/05/13 08:05:55;;;;;;;12.83;12.17;;;13.60;33.20;;;;;;5071675;28;20461;-71
2023/05/13 08:08:20;;;;;;;12.83;12.20;;;13.70;33.60;;;;;;5071833;28;20235;-70
2023/05/13 08:10:46;;;;;;;13.20;12.40;;;13.80;33.10;;;;;;5072083;28;20174;-70
2023/05/13 08:13:11;;;;;;;12.57;12.00;;;13.90;32.30;;;;;;5070922;28;20669;-72
2023/05/13 08:15:37;;;;;;;14.20;13.30;;;13.90;32.20;;;;;;5072735;28;20305;-71
2023/05/13 08:18:03;;;;;;;12.53;12.03;;;13.90;32.70;;;;;;5076442;28;20201;-70
2023/05/13 08:20:28;;;;;;;13.63;12.73;;;14.00;32.70;;;;;;5075803;28;20175;-70
2023/05/13 08:22:57;;;;;;;12.40;11.90;;;14.10;32.40;;;;;;5074870;28;20203;-69
2023/05/13 08:25:23;;;;;;;13.87;13.27;;;14.10;32.30;;;;;;5074211;28;20199;-70
2023/05/13 08:27:49;;;;;;;13.07;12.37;;;14.20;32.30;;;;;;5058249;28;20494;-70
2023/05/13 08:30:14;;;;;;;12.77;12.17;;;14.20;33.10;;;;;;5075839;28;20420;-69
2023/05/13 08:32:40;;;;;;;13.00;12.30;;;14.00;32.20;;;;;;5074289;28;20224;-70
2023/05/13 08:35:06;;;;;;;13.90;13.30;;;14.10;32.50;;;;;;5057183;28;20175;-72
2023/05/13 08:37:31;;;;;;;12.33;11.83;;;14.20;32.40;;;;;;5075595;28;20186;-72
2023/05/13 08:39:59;;;;;;;12.50;11.80;;;14.30;32.50;;;;;;5075723;28;20825;-68
2023/05/13 08:42:27;;;;;;;12.50;11.90;;;14.30;32.50;;;;;;5075432;28;20201;-70
2023/05/13 08:44:53;;;;;;;12.20;11.60;;;14.30;32.10;;;;;;5075924;28;20459;-70
2023/05/13 08:47:28;;;;;;;12.50;12.00;;;14.40;32.40;;;;;;5057973;28;20496;-69
2023/05/13 08:49:55;;;;;;;12.63;12.03;;;14.40;31.80;;;;;;5058104;28;20423;-70
2023/05/13 08:52:21;;;;;;;12.70;12.10;;;14.40;32.10;;;;;;5057001;28;20454;-70
2023/05/13 08:54:48;;;;;;;12.50;11.90;;;14.40;32.20;;;;;;5057604;28;20438;-70
2023/05/13 08:57:13;;;;;;;13.80;13.10;;;14.40;32.00;;;;;;5075770;28;20418;-70
2023/05/13 08:59:39;;;;;;;12.67;12.07;;;14.40;31.70;;;;;;5067766;28;20505;-70
2023/05/13 09:02:05;;;;;;;13.03;12.43;;;14.40;31.50;;;;;;5054995;28;20326;-71
2023/05/13 09:04:36;;;;;;;12.97;12.37;;;14.40;31.90;;;;;;5055384;28;20222;-70
2023/05/13 09:07:03;;;;;;;12.00;11.40;;;14.30;32.20;;;;;;5055509;28;20502;-70
2023/05/13 09:09:28;;;;;;;12.17;11.63;;;14.30;32.40;;;;;;5055256;28;20915;-70
2023/05/13 09:11:54;;;;;;;12.63;12.03;;;14.30;32.40;;;;;;5054814;28;20505;-70
2023/05/13 09:14:19;;;;;;;12.67;12.07;;;14.30;32.20;;;;;;5038203;28;20206;-71
2023/05/13 09:16:46;;;;;;;12.37;11.67;;;14.30;32.40;;;;;;5055507;28;20621;-70
2023/05/13 09:19:12;;;;;;;12.60;12.03;;;14.30;32.20;;;;;;5036735;28;20184;-70
2023/05/13 09:21:38;;;;;;;11.90;11.40;;;14.20;32.20;;;;;;5056202;28;20434;-71
2023/05/13 09:24:17;;;;;;;13.70;13.00;;;14.30;32.00;;;;;;5057944;28;20200;-70
2023/05/13 09:26:44;;;;;;;11.87;11.27;;;14.40;31.70;;;;;;5054593;28;20407;-71
2023/05/13 09:29:21;;;;;;;11.50;11.00;;;14.40;32.20;;;;;;5059516;28;20411;-70
2023/05/13 09:31:55;;;;;;;11.87;11.37;;;14.40;32.20;;;;;;5057817;28;20421;-70
2023/05/13 09:34:31;;;;;;;11.10;10.60;;;14.50;32.00;;;;;;5056106;28;20438;-71
2023/05/13 09:36:58;;;;;;;11.30;10.80;;;14.50;31.70;;;;;;5060180;28;20410;-70
2023/05/13 09:39:24;;;;;;;18.43;17.33;;;14.60;31.50;;;;;;5038041;28;20761;-70
2023/05/13 09:41:51;;;;;;;11.03;10.53;;;14.50;31.30;;;;;;5054394;28;20503;-71
2023/05/13 09:44:16;;;;;;;11.40;10.80;;;14.30;31.70;;;;;;5037238;28;20474;-69
2023/05/13 09:46:42;;;;;;;11.20;10.63;;;14.20;32.60;;;;;;5052388;28;20446;-70
2023/05/13 09:49:09;;;;;;;11.53;10.93;;;14.30;32.40;;;;;;5056089;28;20167;-70
2023/05/13 09:51:35;;;;;;;12.00;11.20;;;14.20;32.70;;;;;;5053286;28;20180;-71
2023/05/13 09:54:05;;;;;;;11.47;10.97;;;14.10;32.80;;;;;;5054456;28;20469;-73
2023/05/13 09:56:34;;;;;;;11.50;10.90;;;14.20;33.10;;;;;;5054113;28;20168;-72
2023/05/13 09:59:01;;;;;;;11.57;10.97;;;14.30;33.00;;;;;;5036626;28;20414;-70
2023/05/13 10:01:27;;;;;;;12.63;12.03;;;14.40;32.30;;;;;;5054878;28;20456;-69
2023/05/13 10:03:58;;;;;;;12.37;11.73;;;14.40;31.90;;;;;;5054080;28;20426;-70
2023/05/13 10:06:26;;;;;;;11.30;10.80;;;14.40;32.40;;;;;;5053743;28;20410;-70
2023/05/13 10:08:54;;;;;;;11.77;11.27;;;14.30;33.00;;;;;;5036907;28;20671;-70
2023/05/13 10:11:22;;;;;;;10.87;10.27;;;14.40;33.50;;;;;;5053580;28;20402;-70
2023/05/13 10:13:57;;;;;;;12.10;11.60;;;14.40;32.50;;;;;;5053514;28;20422;-70
2023/05/13 10:16:24;;;;;;;12.40;11.80;;;14.40;32.70;;;;;;5053550;28;20410;-70
2023/05/13 10:18:50;;;;;;;12.00;11.50;;;14.30;33.30;;;;;;5054491;28;20418;-70
2023/05/13 10:21:17;;;;;;;11.87;11.37;;;14.20;33.10;;;;;;5054202;28;20418;-70
2023/05/13 10:23:45;;;;;;;11.50;11.00;;;14.20;33.60;;;;;;5051984;28;20430;-74
2023/05/13 10:26:11;;;;;;;11.60;11.10;;;14.30;33.60;;;;;;5052670;28;20499;-70
2023/05/13 10:28:37;;;;;;;10.33;9.83;;;14.40;33.40;;;;;;5054527;28;20422;-70
2023/05/13 10:31:03;;;;;;;11.13;10.47;;;14.50;33.00;;;;;;5054070;28;20501;-71
2023/05/13 10:33:29;;;;;;;11.40;10.70;;;14.60;32.80;;;;;;5052478;28;20458;-69
2023/05/13 10:36:24;;;;;;;11.47;10.97;;;14.70;32.40;;;;;;5053871;28;20176;-69
2023/05/13 10:39:15;;;;;;;10.17;9.67;;;14.70;32.50;;;;;;5053911;28;20419;-69
2023/05/13 10:42:08;;;;;;;11.07;10.50;;;14.80;32.20;;;;;;5052255;28;20414;-69
2023/05/13 10:44:34;;;;;;;10.70;10.27;;;14.90;31.70;;;;;;5054660;28;21053;-69
2023/05/13 10:47:01;;;;;;;11.17;10.67;;;14.90;31.70;;;;;;5053435;28;20493;-71
2023/05/13 10:49:33;;;;;;;10.87;10.37;;;14.90;31.70;;;;;;5053585;28;20406;-70
2023/05/13 10:52:07;;;;;;;12.57;11.87;;;14.90;31.80;;;;;;5035687;28;20423;-70
2023/05/13 10:54:41;;;;;;;11.20;10.70;;;14.90;31.70;;;;;;5035348;28;20442;-70
2023/05/13 10:57:07;;;;;;;11.93;11.33;;;14.90;32.20;;;;;;5053242;28;20937;-71
2023/05/13 10:59:35;;;;;;;11.30;10.80;;;14.90;32.00;;;;;;5053978;28;20418;-70
2023/05/13 11:02:22;;;;;;;13.03;12.40;;;14.90;31.90;;;;;;5053285;28;20426;-71
2023/05/13 11:04:59;;;;;;;11.17;10.67;;;14.90;31.80;;;;;;5052394;28;20508;-71
2023/05/13 11:07:27;;;;;;;10.87;10.37;;;14.90;31.70;;;;;;5053880;28;20439;-71
2023/05/13 11:09:53;;;;;;;12.00;11.40;;;14.90;31.80;;;;;;5053875;28;20924;-70
2023/05/13 11:12:19;;;;;;;10.90;10.40;;;14.90;32.00;;;;;;5053334;28;20406;-71
2023/05/13 11:14:44;;;;;;;11.33;10.83;;;14.90;32.20;;;;;;5034414;28;20199;-70
2023/05/13 11:17:11;;;;;;;10.60;10.10;;;14.90;31.80;;;;;;5054154;28;20179;-70
2023/05/13 11:19:48;;;;;;;11.70;11.10;;;15.00;31.90;;;;;;5054019;28;20463;-70
2023/05/13 11:22:17;;;;;;;11.43;10.70;;;15.00;32.20;;;;;;5053071;28;20775;-70
2023/05/13 11:25:06;;;;;;;10.50;10.10;;;15.00;32.10;;;;;;5053360;28;20466;-70
2023/05/13 11:27:40;;;;;;;10.70;10.20;;;15.10;31.90;;;;;;5035702;28;20414;-70
2023/05/13 11:30:22;;;;;;;10.67;10.13;;;15.10;31.50;;;;;;5053465;28;20421;-69
2023/05/13 11:32:54;;;;;;;11.63;10.93;;;15.00;31.70;;;;;;5052653;28;20513;-70
2023/05/13 11:35:25;;;;;;;11.80;11.20;;;15.10;31.70;;;;;;5053989;28;20446;-70
2023/05/13 11:37:51;;;;;;;10.77;10.27;;;15.20;31.70;;;;;;5053556;28;20411;-70
2023/05/13 11:40:33;;;;;;;11.50;10.90;;;15.30;31.00;;;;;;5053321;28;20426;-70
2023/05/13 11:43:00;;;;;;;10.83;10.23;;;15.30;31.10;;;;;;5052786;28;20200;-70
2023/05/13 11:45:26;;;;;;;11.47;10.93;;;15.30;31.30;;;;;;5053281;28;20450;-71
2023/05/13 11:47:53;;;;;;;11.23;10.70;;;15.30;31.10;;;;;;5053069;28;20422;-70
2023/05/13 11:50:25;;;;;;;10.97;10.50;;;15.30;31.20;;;;;;5036892;28;20407;-70
2023/05/13 11:52:56;;;;;;;12.30;11.40;;;15.20;30.90;;;;;;5071744;28;20465;-70
2023/05/13 11:55:29;;;;;;;12.23;11.73;;;15.10;31.60;;;;;;5076518;28;20425;-70
2023/05/13 11:57:55;;;;;;;10.90;10.40;;;15.20;31.30;;;;;;5076418;28;20432;-70
2023/05/13 12:00:29;;;;;;;11.30;10.77;;;15.20;31.60;;;;;;5072063;28;20434;-70
2023/05/13 12:02:55;;;;;;;11.80;11.27;;;15.20;31.50;;;;;;5063774;28;20460;-74
2023/05/13 12:05:21;;;;;;;11.13;10.63;;;15.20;31.80;;;;;;5057115;28;20808;-70
2023/05/13 12:07:47;;;;;;;10.13;9.73;;;15.20;31.80;;;;;;5076325;28;20441;-71
2023/05/13 12:10:13;;;;;;;10.77;10.27;;;15.20;31.70;;;;;;5076406;28;20402;-71
2023/05/13 12:12:42;;;;;;;10.87;10.40;;;15.20;31.30;;;;;;5075658;28;20440;-70
2023/05/13 12:15:10;;;;;;;11.33;10.83;;;15.20;31.30;;;;;;5073370;28;20435;-70
2023/05/13 12:17:36;;;;;;;10.07;9.67;;;15.30;31.50;;;;;;5075814;28;20405;-70
2023/05/13 12:20:10;;;;;;;11.50;11.00;;;15.30;31.60;;;;;;5075421;28;20437;-70
2023/05/13 12:22:42;;;;;;;10.40;10.00;;;15.30;31.70;;;;;;5074745;28;20425;-70
2023/05/13 12:25:46;;;;;;;10.40;10.00;;;15.20;31.30;;;;;;5075862;28;20453;-69
2023/05/13 12:28:17;;;;;;;9.53;9.13;;;15.20;30.50;;;;;;5074721;28;20405;-71